Time;durP1;ratioP1;P1;durP2;ratioP2;P2;SDS_P1;SDS_P2;PMS_P1;PMS_P2;Temp;Humidity;BMP_temperature;BMP_pressure;BME280_temperature;BME280_humidity;BME280_pressure;Samples;Min_cycle;Max_cycle;Signal;HPM_P1;HPM_P2
2023/11/23 00:01:22;;;;;;;52.60;32.70;;;;;;;;;;103814;1292;544807;-74
2023/11/23 00:04:59;;;;;;;54.00;33.60;;;;;;;;;;103887;1289;545625;-73
2023/11/23 00:08:40;;;;;;;57.00;37.20;;;;;;;;;;103702;1294;545230;-72
2023/11/23 00:12:33;;;;;;;56.60;35.30;;;;;;;;;;103583;1295;548182;-73
2023/11/23 00:15:50;;;;;;;55.80;34.00;;;;;;;;;;103821;1291;544697;-72
2023/11/23 00:19:29;;;;;;;58.20;36.30;;;;;;;;;;103735;1295;544957;-71
2023/11/23 00:23:09;;;;;;;59.30;37.50;;;;;;;;;;103798;1289;544834;-71
2023/11/23 00:26:44;;;;;;;63.40;39.80;;;;;;;;;;103760;1293;545595;-72
2023/11/23 00:30:17;;;;;;;58.70;36.60;;;;;;;;;;103960;1289;545569;-72
2023/11/23 00:33:58;;;;;;;58.30;36.50;;;;;;;;;;103803;1292;545375;-73
2023/11/23 00:37:36;;;;;;;59.20;39.20;;;;;;;;;;104034;1292;544947;-72
2023/11/23 00:41:09;;;;;;;56.70;36.90;;;;;;;;;;103896;1289;544791;-71
2023/11/23 00:44:51;;;;;;;58.80;35.80;;;;;;;;;;103894;1291;544987;-72
2023/11/23 00:48:28;;;;;;;48.50;29.60;;;;;;;;;;103824;1293;545016;-72
2023/11/23 00:52:02;;;;;;;45.90;27.80;;;;;;;;;;103888;1290;544973;-72
2023/11/23 00:55:44;;;;;;;43.20;27.30;;;;;;;;;;103833;1292;545789;-72
2023/11/23 00:59:21;;;;;;;43.40;28.20;;;;;;;;;;103588;1297;544976;-72
2023/11/23 01:02:58;;;;;;;42.40;27.00;;;;;;;;;;103786;1292;544881;-73
2023/11/23 01:06:35;;;;;;;37.60;23.50;;;;;;;;;;103991;1288;545053;-73
2023/11/23 01:10:13;;;;;;;35.50;22.80;;;;;;;;;;103639;1295;544772;-72
2023/11/23 01:13:51;;;;;;;34.50;21.70;;;;;;;;;;103916;1288;544937;-73
2023/11/23 01:17:31;;;;;;;34.80;22.40;;;;;;;;;;103878;1289;545069;-71
2023/11/23 01:21:05;;;;;;;34.20;21.50;;;;;;;;;;104499;1283;544976;-73
2023/11/23 01:24:48;;;;;;;32.40;20.50;;;;;;;;;;103704;1290;547942;-72
2023/11/23 01:28:20;;;;;;;25.30;16.70;;;;;;;;;;103803;1294;545968;-72
2023/11/23 01:31:58;;;;;;;27.80;18.20;;;;;;;;;;103664;1292;544991;-71
2023/11/23 01:35:31;;;;;;;29.60;18.20;;;;;;;;;;104322;1286;545507;-71
2023/11/23 01:39:16;;;;;;;27.60;18.90;;;;;;;;;;103804;1291;544862;-71
2023/11/23 01:42:50;;;;;;;25.70;16.90;;;;;;;;;;103866;1292;546190;-74
2023/11/23 01:46:28;;;;;;;24.00;14.30;;;;;;;;;;103810;1292;545272;-71
2023/11/23 01:50:06;;;;;;;23.10;14.80;;;;;;;;;;103764;1290;545936;-72
2023/11/23 01:53:43;;;;;;;22.30;14.10;;;;;;;;;;103785;1291;545668;-72
2023/11/23 01:57:20;;;;;;;24.30;15.50;;;;;;;;;;103781;1292;544775;-71
2023/11/23 02:00:57;;;;;;;20.00;12.70;;;;;;;;;;103820;1292;544907;-72
2023/11/23 02:04:40;;;;;;;20.10;11.60;;;;;;;;;;103915;1288;547961;-71
2023/11/23 02:08:12;;;;;;;18.50;12.50;;;;;;;;;;103800;1289;545517;-74
2023/11/23 02:11:50;;;;;;;18.90;12.90;;;;;;;;;;103810;1292;546003;-72
2023/11/23 02:15:27;;;;;;;19.80;12.60;;;;;;;;;;103752;1295;544830;-71
2023/11/23 02:19:04;;;;;;;17.80;11.40;;;;;;;;;;104389;1285;545406;-73
2023/11/23 02:22:42;;;;;;;19.10;12.60;;;;;;;;;;103855;1289;544990;-72
2023/11/23 02:26:19;;;;;;;19.80;13.20;;;;;;;;;;103851;1290;544715;-71
2023/11/23 02:29:57;;;;;;;21.80;12.60;;;;;;;;;;104184;1286;545382;-71
2023/11/23 02:33:34;;;;;;;17.00;11.10;;;;;;;;;;103937;1288;544984;-71
2023/11/23 02:37:18;;;;;;;20.30;13.10;;;;;;;;;;103450;1294;548006;-71
2023/11/23 02:40:50;;;;;;;19.30;13.10;;;;;;;;;;103707;1294;545280;-72
2023/11/23 02:44:27;;;;;;;19.10;12.90;;;;;;;;;;104080;1289;545822;-70
2023/11/23 02:48:05;;;;;;;18.50;12.30;;;;;;;;;;103818;1290;546058;-71
2023/11/23 02:51:42;;;;;;;20.30;13.20;;;;;;;;;;103806;1292;545088;-72
2023/11/23 02:55:20;;;;;;;19.30;13.50;;;;;;;;;;103870;1289;545692;-71
2023/11/23 02:58:57;;;;;;;19.30;12.90;;;;;;;;;;103770;1294;545679;-71
2023/11/23 03:02:34;;;;;;;18.40;11.60;;;;;;;;;;103906;1292;545413;-70
2023/11/23 03:06:12;;;;;;;18.20;11.90;;;;;;;;;;103816;1289;545008;-72
2023/11/23 03:09:49;;;;;;;22.00;13.10;;;;;;;;;;103913;1289;544967;-71
2023/11/23 03:13:27;;;;;;;19.40;12.10;;;;;;;;;;104591;1282;545013;-71
2023/11/23 03:17:05;;;;;;;19.10;11.20;;;;;;;;;;103803;1291;545666;-71
2023/11/23 03:20:41;;;;;;;21.00;11.70;;;;;;;;;;103690;1295;545635;-70
2023/11/23 03:24:19;;;;;;;18.50;11.80;;;;;;;;;;103872;1289;544708;-70
2023/11/23 03:27:56;;;;;;;20.90;14.10;;;;;;;;;;103801;1292;544973;-71
2023/11/23 03:31:34;;;;;;;18.60;11.80;;;;;;;;;;103844;1292;544716;-71
2023/11/23 03:35:11;;;;;;;16.50;10.20;;;;;;;;;;103783;1291;545092;-73
2023/11/23 03:38:49;;;;;;;17.10;10.80;;;;;;;;;;104171;1288;544691;-71
2023/11/23 03:42:26;;;;;;;17.60;11.50;;;;;;;;;;103835;1289;545790;-72
2023/11/23 03:46:00;;;;;;;17.40;11.90;;;;;;;;;;103924;1290;545602;-70
2023/11/23 03:49:41;;;;;;;18.90;11.70;;;;;;;;;;103556;1294;545544;-71
2023/11/23 03:53:19;;;;;;;17.70;11.10;;;;;;;;;;103952;1293;544803;-71
2023/11/23 03:56:58;;;;;;;16.90;11.40;;;;;;;;;;103789;1291;545084;-72
2023/11/23 04:00:34;;;;;;;17.70;11.30;;;;;;;;;;103585;1295;544940;-71
2023/11/23 04:04:12;;;;;;;22.80;15.30;;;;;;;;;;103880;1288;545007;-71
2023/11/23 04:07:48;;;;;;;44.70;30.10;;;;;;;;;;104310;1289;545656;-71
2023/11/23 04:11:26;;;;;;;46.60;34.70;;;;;;;;;;103816;1289;544839;-70
2023/11/23 04:15:04;;;;;;;30.40;24.30;;;;;;;;;;103805;1289;545503;-70
2023/11/23 04:18:41;;;;;;;24.20;17.40;;;;;;;;;;103838;1289;544776;-72
2023/11/23 04:22:18;;;;;;;22.30;15.10;;;;;;;;;;103803;1294;544979;-72
2023/11/23 04:25:56;;;;;;;20.60;12.80;;;;;;;;;;103822;1292;545727;-71
2023/11/23 04:29:31;;;;;;;18.50;12.30;;;;;;;;;;103975;1289;545004;-72
2023/11/23 04:33:11;;;;;;;19.10;13.50;;;;;;;;;;103786;1292;544711;-72
2023/11/23 04:36:48;;;;;;;20.60;13.50;;;;;;;;;;103834;1293;544766;-72
2023/11/23 04:40:26;;;;;;;20.90;14.30;;;;;;;;;;103956;1288;544981;-72
2023/11/23 04:44:03;;;;;;;18.80;12.00;;;;;;;;;;103972;1292;545086;-72
2023/11/23 04:47:37;;;;;;;19.70;12.60;;;;;;;;;;103891;1289;545924;-71
2023/11/23 04:51:18;;;;;;;27.60;19.80;;;;;;;;;;103811;1289;544890;-73
2023/11/23 04:54:55;;;;;;;23.60;15.70;;;;;;;;;;103790;1290;545029;-72
2023/11/23 04:58:33;;;;;;;23.00;14.80;;;;;;;;;;103836;1294;544834;-71
2023/11/23 05:02:10;;;;;;;24.80;14.00;;;;;;;;;;103952;1294;544826;-71
2023/11/23 05:05:48;;;;;;;23.60;16.50;;;;;;;;;;103851;1289;545168;-73
2023/11/23 05:09:25;;;;;;;21.60;14.50;;;;;;;;;;103813;1292;545091;-72
2023/11/23 05:13:03;;;;;;;20.70;13.50;;;;;;;;;;103799;1291;545159;-75
2023/11/23 05:16:40;;;;;;;19.80;13.20;;;;;;;;;;103772;1289;544735;-73
2023/11/23 05:20:18;;;;;;;20.80;14.00;;;;;;;;;;103811;1290;544777;-74
2023/11/23 05:23:55;;;;;;;21.20;14.20;;;;;;;;;;103801;1294;545860;-73
2023/11/23 05:27:33;;;;;;;20.20;12.90;;;;;;;;;;103848;1289;546203;-73
2023/11/23 05:31:10;;;;;;;18.70;11.90;;;;;;;;;;103847;1291;544742;-74
2023/11/23 05:34:48;;;;;;;18.80;12.20;;;;;;;;;;103762;1294;545539;-71
2023/11/23 05:38:25;;;;;;;20.00;13.10;;;;;;;;;;103856;1290;546454;-73
2023/11/23 05:42:03;;;;;;;18.90;12.30;;;;;;;;;;103814;1295;546066;-73
2023/11/23 05:45:40;;;;;;;20.20;12.30;;;;;;;;;;103626;1298;544872;-74
2023/11/23 05:49:21;;;;;;;19.10;11.20;;;;;;;;;;103816;1289;544794;-73
2023/11/23 05:52:57;;;;;;;18.70;12.40;;;;;;;;;;104306;1283;545612;-73
2023/11/23 05:56:33;;;;;;;19.70;12.50;;;;;;;;;;103783;1292;544969;-75
2023/11/23 06:00:11;;;;;;;18.40;11.30;;;;;;;;;;104140;1289;544957;-74
2023/11/23 06:03:49;;;;;;;18.40;12.00;;;;;;;;;;103597;1294;545094;-74
2023/11/23 06:07:25;;;;;;;20.40;13.30;;;;;;;;;;103524;1294;545059;-74
2023/11/23 06:11:03;;;;;;;18.00;12.10;;;;;;;;;;104034;1289;545607;-73
2023/11/23 06:14:40;;;;;;;16.80;10.90;;;;;;;;;;104014;1289;544924;-73
2023/11/23 06:18:18;;;;;;;18.00;11.70;;;;;;;;;;104130;1289;544762;-74
2023/11/23 06:22:01;;;;;;;18.30;12.20;;;;;;;;;;103601;1291;547806;-73
2023/11/23 06:25:32;;;;;;;17.90;11.60;;;;;;;;;;103633;1298;545081;-75
2023/11/23 06:29:09;;;;;;;18.90;11.70;;;;;;;;;;103763;1291;544952;-72
2023/11/23 06:33:06;;;;;;;19.10;11.20;;;;;;;;;;103795;1291;549199;-72
2023/11/23 06:36:25;;;;;;;17.70;11.00;;;;;;;;;;103820;1291;544803;-71
2023/11/23 06:39:58;;;;;;;16.50;10.10;;;;;;;;;;103805;1289;545768;-71
2023/11/23 06:43:41;;;;;;;17.80;10.70;;;;;;;;;;103767;1292;545323;-70
2023/11/23 06:47:17;;;;;;;16.20;9.50;;;;;;;;;;103855;1289;545050;-72
2023/11/23 06:50:54;;;;;;;23.20;12.50;;;;;;;;;;104593;1282;545039;-71
2023/11/23 06:54:32;;;;;;;23.40;13.00;;;;;;;;;;104383;1282;545327;-69
2023/11/23 06:58:10;;;;;;;23.00;12.80;;;;;;;;;;103753;1296;544869;-70
2023/11/23 07:01:47;;;;;;;22.70;11.70;;;;;;;;;;103537;1295;544944;-70
2023/11/23 07:05:25;;;;;;;25.80;14.30;;;;;;;;;;103751;1289;545049;-70
2023/11/23 07:09:03;;;;;;;20.90;12.80;;;;;;;;;;103752;1291;544850;-71
2023/11/23 07:12:40;;;;;;;18.00;10.30;;;;;;;;;;104192;1286;545960;-72
2023/11/23 07:16:17;;;;;;;19.40;10.80;;;;;;;;;;103847;1293;544757;-70
2023/11/23 07:19:54;;;;;;;19.10;11.40;;;;;;;;;;103758;1289;545179;-70
2023/11/23 07:23:31;;;;;;;17.90;11.30;;;;;;;;;;103779;1291;545525;-71
2023/11/23 07:27:09;;;;;;;18.50;10.70;;;;;;;;;;103853;1292;544805;-70
2023/11/23 07:30:47;;;;;;;20.20;11.70;;;;;;;;;;103706;1289;546060;-72
2023/11/23 07:34:25;;;;;;;18.90;11.50;;;;;;;;;;103790;1289;545126;-70
2023/11/23 07:38:07;;;;;;;16.40;9.50;;;;;;;;;;103573;1292;548129;-70
2023/11/23 07:41:39;;;;;;;17.90;10.20;;;;;;;;;;103813;1289;545247;-71
2023/11/23 07:45:16;;;;;;;27.00;12.90;;;;;;;;;;103771;1291;544829;-70
2023/11/23 07:48:54;;;;;;;25.40;12.50;;;;;;;;;;103815;1292;545115;-70
2023/11/23 07:52:31;;;;;;;33.70;16.60;;;;;;;;;;103680;1295;545936;-70
2023/11/23 07:56:13;;;;;;;22.80;12.40;;;;;;;;;;103555;1289;547816;-71
2023/11/23 07:59:46;;;;;;;26.30;13.30;;;;;;;;;;103733;1291;545566;-70
2023/11/23 08:03:24;;;;;;;21.80;12.10;;;;;;;;;;103799;1289;544923;-69
2023/11/23 08:07:06;;;;;;;23.90;13.50;;;;;;;;;;103822;1289;545435;-71
2023/11/23 08:10:39;;;;;;;25.50;15.40;;;;;;;;;;103725;1294;544734;-71
2023/11/23 08:14:16;;;;;;;21.50;12.20;;;;;;;;;;103791;1292;544921;-71
2023/11/23 08:17:54;;;;;;;22.70;13.00;;;;;;;;;;103813;1291;545448;-71
2023/11/23 08:21:31;;;;;;;15.40;9.70;;;;;;;;;;103709;1290;545423;-70
2023/11/23 08:25:09;;;;;;;16.40;10.30;;;;;;;;;;103774;1290;545010;-70
2023/11/23 08:28:46;;;;;;;19.20;11.90;;;;;;;;;;103716;1292;545886;-71
2023/11/23 08:32:26;;;;;;;18.20;11.50;;;;;;;;;;103701;1292;546331;-70
2023/11/23 08:36:07;;;;;;;15.90;10.00;;;;;;;;;;103505;1292;548108;-70
2023/11/23 08:39:40;;;;;;;14.20;9.50;;;;;;;;;;103815;1290;544790;-69
2023/11/23 08:43:17;;;;;;;13.20;8.10;;;;;;;;;;103762;1292;545437;-70
2023/11/23 08:47:00;;;;;;;14.80;8.90;;;;;;;;;;103582;1292;547894;-70
2023/11/23 08:50:27;;;;;;;14.00;8.20;;;;;;;;;;104515;1282;545543;-70
2023/11/23 08:54:09;;;;;;;13.50;7.60;;;;;;;;;;103760;1289;545012;-70
2023/11/23 08:57:50;;;;;;;15.40;8.90;;;;;;;;;;104125;1288;545904;-70
2023/11/23 09:01:26;;;;;;;16.10;9.10;;;;;;;;;;103603;1292;545060;-72
2023/11/23 09:05:00;;;;;;;17.40;9.30;;;;;;;;;;104100;1285;544984;-70
2023/11/23 09:08:40;;;;;;;13.40;8.10;;;;;;;;;;103611;1295;545001;-70
2023/11/23 09:12:16;;;;;;;16.10;9.80;;;;;;;;;;103685;1293;544773;-71
2023/11/23 09:15:53;;;;;;;16.10;8.80;;;;;;;;;;103873;1289;545114;-72
2023/11/23 09:19:31;;;;;;;15.60;9.20;;;;;;;;;;103693;1292;544794;-70
2023/11/23 09:23:08;;;;;;;15.00;9.10;;;;;;;;;;104027;1289;544841;-72
2023/11/23 09:26:47;;;;;;;19.00;10.70;;;;;;;;;;104108;1286;545592;-71
2023/11/23 09:30:23;;;;;;;20.40;10.70;;;;;;;;;;103773;1289;545310;-70
2023/11/23 09:34:00;;;;;;;15.60;7.80;;;;;;;;;;104003;1292;545852;-71
2023/11/23 09:37:39;;;;;;;14.30;8.30;;;;;;;;;;104553;1282;544784;-73
2023/11/23 09:41:19;;;;;;;14.50;8.00;;;;;;;;;;103688;1292;545661;-69
2023/11/23 09:44:57;;;;;;;14.20;8.40;;;;;;;;;;103761;1290;544954;-72
2023/11/23 09:48:34;;;;;;;13.90;7.90;;;;;;;;;;103858;1289;545748;-71
2023/11/23 09:52:08;;;;;;;14.60;7.90;;;;;;;;;;103826;1292;545532;-71
2023/11/23 09:55:46;;;;;;;11.60;7.00;;;;;;;;;;103755;1289;544959;-70
2023/11/23 09:59:23;;;;;;;14.70;9.20;;;;;;;;;;103649;1292;545082;-71
2023/11/23 10:03:05;;;;;;;15.20;8.30;;;;;;;;;;103731;1291;545424;-70
2023/11/23 10:06:38;;;;;;;14.00;8.60;;;;;;;;;;104514;1283;545401;-70
2023/11/23 10:10:15;;;;;;;13.90;8.50;;;;;;;;;;103518;1293;544987;-72
2023/11/23 10:13:53;;;;;;;14.60;8.20;;;;;;;;;;103787;1301;545061;-69
2023/11/23 10:17:30;;;;;;;14.10;8.50;;;;;;;;;;104621;1282;544859;-76
2023/11/23 10:21:09;;;;;;;11.50;7.80;;;;;;;;;;103883;1289;544803;-71
2023/11/23 10:24:45;;;;;;;13.50;8.50;;;;;;;;;;103720;1293;545878;-70
2023/11/23 10:28:23;;;;;;;12.90;7.70;;;;;;;;;;103736;1292;545298;-70
2023/11/23 10:32:00;;;;;;;12.10;8.20;;;;;;;;;;103767;1289;545333;-68
2023/11/23 10:35:40;;;;;;;11.10;6.70;;;;;;;;;;103871;1289;545423;-70
2023/11/23 10:39:16;;;;;;;12.40;7.10;;;;;;;;;;103782;1289;544721;-70
2023/11/23 10:42:52;;;;;;;11.00;6.70;;;;;;;;;;103669;1292;544953;-70
2023/11/23 10:46:30;;;;;;;11.40;6.80;;;;;;;;;;104390;1285;544781;-70
2023/11/23 10:50:08;;;;;;;11.70;6.80;;;;;;;;;;104403;1283;544991;-71
2023/11/23 10:53:50;;;;;;;12.00;6.80;;;;;;;;;;103239;1294;547931;-71
2023/11/23 10:57:28;;;;;;;12.30;7.20;;;;;;;;;;103693;1295;547952;-70
2023/11/23 11:01:02;;;;;;;13.80;7.30;;;;;;;;;;103797;1295;548000;-70
2023/11/23 11:04:37;;;;;;;11.20;5.70;;;;;;;;;;103777;1290;545000;-71
2023/11/23 11:08:18;;;;;;;7.20;2.70;;;;;;;;;;103723;1295;544998;-71
2023/11/23 11:11:53;;;;;;;7.70;2.20;;;;;;;;;;103711;1292;545998;-71
2023/11/23 11:15:29;;;;;;;7.80;2.50;;;;;;;;;;103765;1289;545858;-71
2023/11/23 11:19:09;;;;;;;7.50;2.90;;;;;;;;;;103879;1292;545369;-72
2023/11/23 11:22:54;;;;;;;6.00;2.20;;;;;;;;;;103912;1291;545038;-72
2023/11/23 11:26:27;;;;;;;9.20;2.30;;;;;;;;;;103921;1288;544712;-71
2023/11/23 11:30:00;;;;;;;7.30;2.80;;;;;;;;;;103771;1290;544996;-70
2023/11/23 11:33:33;;;;;;;6.80;3.20;;;;;;;;;;103692;1292;544819;-74
2023/11/23 11:37:14;;;;;;;4.00;1.50;;;;;;;;;;103958;1292;545043;-70
2023/11/23 11:40:52;;;;;;;6.50;2.00;;;;;;;;;;103592;1295;545976;-72
2023/11/23 11:44:33;;;;;;;5.40;1.90;;;;;;;;;;103729;1290;544823;-71
2023/11/23 11:48:07;;;;;;;5.10;2.00;;;;;;;;;;103739;1295;544883;-73
2023/11/23 11:51:44;;;;;;;5.10;1.70;;;;;;;;;;103805;1291;544908;-73
2023/11/23 11:55:22;;;;;;;7.00;1.90;;;;;;;;;;103949;1289;544716;-73
2023/11/23 11:59:03;;;;;;;8.40;2.30;;;;;;;;;;103697;1292;545018;-72
2023/11/23 12:02:36;;;;;;;5.90;2.00;;;;;;;;;;103772;1291;546010;-72
2023/11/23 12:06:20;;;;;;;6.20;1.90;;;;;;;;;;103611;1291;545322;-71
2023/11/23 12:09:59;;;;;;;6.20;2.00;;;;;;;;;;103511;1294;545449;-71
2023/11/23 12:13:32;;;;;;;6.40;2.60;;;;;;;;;;103799;1290;544752;-75
2023/11/23 12:17:10;;;;;;;6.50;2.90;;;;;;;;;;103781;1294;545890;-72
2023/11/23 12:20:44;;;;;;;4.50;1.80;;;;;;;;;;103705;1294;544855;-72
2023/11/23 12:24:21;;;;;;;7.90;2.40;;;;;;;;;;103897;1288;545731;-71
2023/11/23 12:27:59;;;;;;;7.30;2.10;;;;;;;;;;103562;1295;544808;-73
2023/11/23 12:31:36;;;;;;;7.20;2.30;;;;;;;;;;103711;1292;545966;-72
2023/11/23 12:35:10;;;;;;;10.70;4.00;;;;;;;;;;104524;1282;545354;-73
2023/11/23 12:38:51;;;;;;;7.80;2.30;;;;;;;;;;103713;1298;544814;-75
2023/11/23 12:42:28;;;;;;;5.90;2.50;;;;;;;;;;103880;1289;545589;-73
2023/11/23 12:46:06;;;;;;;5.30;2.20;;;;;;;;;;103730;1293;545156;-72
2023/11/23 12:49:39;;;;;;;8.70;3.10;;;;;;;;;;103853;1288;544841;-71
2023/11/23 12:53:18;;;;;;;7.80;3.20;;;;;;;;;;103879;1292;546048;-70
2023/11/23 12:56:58;;;;;;;5.60;2.10;;;;;;;;;;104111;1289;544992;-72
2023/11/23 13:00:35;;;;;;;5.70;2.30;;;;;;;;;;104021;1289;545101;-71
2023/11/23 13:04:14;;;;;;;14.80;7.60;;;;;;;;;;103820;1295;545240;-71
2023/11/23 13:07:51;;;;;;;9.70;4.00;;;;;;;;;;103914;1292;544896;-71
2023/11/23 13:11:28;;;;;;;17.60;7.90;;;;;;;;;;103713;1289;544731;-71
2023/11/23 13:15:08;;;;;;;14.70;7.60;;;;;;;;;;103749;1290;544857;-72
2023/11/23 13:18:43;;;;;;;8.50;3.50;;;;;;;;;;103796;1294;544987;-71
2023/11/23 13:22:17;;;;;;;7.30;3.00;;;;;;;;;;103802;1289;544860;-73
2023/11/23 13:26:00;;;;;;;9.40;4.40;;;;;;;;;;103799;1289;544954;-73
2023/11/23 13:29:42;;;;;;;13.90;6.20;;;;;;;;;;103755;1294;545553;-71
2023/11/23 13:33:15;;;;;;;13.00;5.40;;;;;;;;;;103934;1290;545282;-70
2023/11/23 13:36:50;;;;;;;11.90;5.50;;;;;;;;;;104198;1289;545055;-71
2023/11/23 13:40:33;;;;;;;12.10;5.60;;;;;;;;;;103462;1297;546300;-71
2023/11/23 13:44:05;;;;;;;11.20;4.60;;;;;;;;;;104761;1284;544911;-71
2023/11/23 13:47:43;;;;;;;22.40;9.70;;;;;;;;;;103856;1292;545929;-71
2023/11/23 13:51:21;;;;;;;26.10;13.00;;;;;;;;;;103868;1295;544960;-72
2023/11/23 13:54:58;;;;;;;14.80;7.50;;;;;;;;;;103642;1295;544960;-70
2023/11/23 13:58:35;;;;;;;10.50;4.50;;;;;;;;;;103741;1288;545654;-70
2023/11/23 14:02:09;;;;;;;15.50;7.60;;;;;;;;;;103903;1289;544945;-72
2023/11/23 14:05:50;;;;;;;9.70;5.00;;;;;;;;;;103632;1296;544849;-71
2023/11/23 14:09:30;;;;;;;8.60;4.20;;;;;;;;;;103837;1289;545571;-72
2023/11/23 14:13:05;;;;;;;9.50;4.70;;;;;;;;;;103814;1289;544744;-71
2023/11/23 14:16:42;;;;;;;9.40;4.60;;;;;;;;;;103934;1288;545096;-75
2023/11/23 14:20:23;;;;;;;8.10;3.70;;;;;;;;;;103881;1294;544675;-70
2023/11/23 14:23:58;;;;;;;5.80;2.60;;;;;;;;;;103692;1293;544960;-71
2023/11/23 14:27:37;;;;;;;5.70;2.40;;;;;;;;;;103739;1292;545031;-70
2023/11/23 14:31:13;;;;;;;10.60;5.50;;;;;;;;;;104106;1289;545049;-72
2023/11/23 14:34:52;;;;;;;8.90;3.10;;;;;;;;;;105694;1291;549181;-74
2023/11/23 14:38:25;;;;;;;13.10;5.90;;;;;;;;;;103514;1292;545081;-71
2023/11/23 14:42:06;;;;;;;8.50;3.60;;;;;;;;;;103751;1292;545394;-69
2023/11/23 14:45:38;;;;;;;8.90;3.80;;;;;;;;;;103917;1287;545495;-70
2023/11/23 14:49:22;;;;;;;8.10;3.70;;;;;;;;;;103808;1288;545201;-72
2023/11/23 14:52:58;;;;;;;12.10;5.40;;;;;;;;;;103806;1292;545138;-70
2023/11/23 14:56:35;;;;;;;9.50;4.70;;;;;;;;;;103821;1292;545318;-71
2023/11/23 15:00:13;;;;;;;8.10;3.40;;;;;;;;;;103486;1294;545027;-72
2023/11/23 15:03:49;;;;;;;14.90;8.80;;;;;;;;;;103827;1293;545727;-71
2023/11/23 15:07:26;;;;;;;7.50;3.30;;;;;;;;;;103585;1295;544934;-71
2023/11/23 15:11:05;;;;;;;9.10;3.90;;;;;;;;;;103775;1294;545313;-70
2023/11/23 15:14:42;;;;;;;15.00;8.20;;;;;;;;;;104202;1284;545110;-70
2023/11/23 15:18:19;;;;;;;11.10;5.60;;;;;;;;;;103805;1290;545175;-71
2023/11/23 15:21:59;;;;;;;8.80;3.60;;;;;;;;;;103800;1292;545790;-70
2023/11/23 15:25:35;;;;;;;8.90;4.00;;;;;;;;;;103795;1291;544798;-73
2023/11/23 15:29:08;;;;;;;9.20;4.40;;;;;;;;;;104695;1283;545023;-74
2023/11/23 15:32:52;;;;;;;10.50;3.20;;;;;;;;;;103832;1292;545051;-72
2023/11/23 15:36:26;;;;;;;8.90;3.50;;;;;;;;;;103788;1292;545443;-69
2023/11/23 15:40:09;;;;;;;12.10;6.10;;;;;;;;;;103749;1292;544837;-73
2023/11/23 15:43:41;;;;;;;9.70;3.90;;;;;;;;;;103571;1294;545035;-71
2023/11/23 15:47:18;;;;;;;17.30;7.40;;;;;;;;;;103767;1291;544859;-70
2023/11/23 15:50:57;;;;;;;9.40;4.00;;;;;;;;;;103813;1292;545410;-70
2023/11/23 15:54:39;;;;;;;7.20;3.00;;;;;;;;;;104058;1287;548370;-71
2023/11/23 15:58:11;;;;;;;7.40;3.20;;;;;;;;;;103704;1292;545130;-71
2023/11/23 16:01:49;;;;;;;7.20;2.40;;;;;;;;;;103687;1295;544833;-72
2023/11/23 16:05:28;;;;;;;8.10;3.30;;;;;;;;;;103798;1290;545609;-71
2023/11/23 16:09:08;;;;;;;6.60;2.10;;;;;;;;;;103874;1288;544965;-71
2023/11/23 16:12:44;;;;;;;6.60;2.40;;;;;;;;;;103733;1295;545695;-72
2023/11/23 16:16:18;;;;;;;6.90;2.50;;;;;;;;;;103711;1293;544869;-72
2023/11/23 16:19:56;;;;;;;8.90;3.80;;;;;;;;;;104107;1285;545054;-73
2023/11/23 16:23:34;;;;;;;23.20;12.90;;;;;;;;;;104175;1289;545471;-71
2023/11/23 16:27:07;;;;;;;25.40;14.70;;;;;;;;;;104562;1282;545049;-71
2023/11/23 16:30:49;;;;;;;17.50;8.60;;;;;;;;;;103585;1298;544818;-74
2023/11/23 16:34:26;;;;;;;15.00;8.40;;;;;;;;;;103790;1292;545609;-72
2023/11/23 16:38:05;;;;;;;12.70;6.80;;;;;;;;;;103801;1289;545532;-72
2023/11/23 16:41:48;;;;;;;12.50;7.10;;;;;;;;;;104052;1289;546328;-70
2023/11/23 16:45:18;;;;;;;9.90;5.10;;;;;;;;;;103949;1289;545239;-72
2023/11/23 16:48:56;;;;;;;7.40;3.20;;;;;;;;;;103751;1292;544982;-71
2023/11/23 16:52:39;;;;;;;8.70;3.80;;;;;;;;;;103811;1290;545050;-71
2023/11/23 16:56:11;;;;;;;7.70;3.80;;;;;;;;;;103890;1291;544883;-71
2023/11/23 16:59:48;;;;;;;7.00;3.00;;;;;;;;;;103885;1288;545004;-71
2023/11/23 17:03:26;;;;;;;10.10;4.70;;;;;;;;;;103824;1290;545671;-73
2023/11/23 17:07:03;;;;;;;15.40;7.30;;;;;;;;;;103744;1292;545770;-69
2023/11/23 17:10:41;;;;;;;12.60;6.00;;;;;;;;;;103804;1292;546232;-73
2023/11/23 17:14:23;;;;;;;8.10;3.30;;;;;;;;;;103654;1292;545362;-72
2023/11/23 17:17:55;;;;;;;6.70;3.00;;;;;;;;;;103927;1288;544872;-69
2023/11/23 17:21:35;;;;;;;7.60;3.40;;;;;;;;;;103515;1292;544924;-70
2023/11/23 17:25:11;;;;;;;6.20;2.70;;;;;;;;;;104215;1285;544729;-71
2023/11/23 17:28:48;;;;;;;6.70;2.60;;;;;;;;;;103806;1289;544839;-70
2023/11/23 17:32:27;;;;;;;5.00;2.10;;;;;;;;;;103585;1298;545364;-72
2023/11/23 17:36:23;;;;;;;6.30;2.90;;;;;;;;;;103798;1292;546005;-70
2023/11/23 17:39:40;;;;;;;6.20;2.80;;;;;;;;;;103852;1292;545595;-69
2023/11/23 17:43:18;;;;;;;8.20;3.70;;;;;;;;;;103968;1289;545096;-72
2023/11/23 17:46:55;;;;;;;8.10;4.00;;;;;;;;;;103447;1298;545385;-70
2023/11/23 17:50:33;;;;;;;8.30;3.60;;;;;;;;;;103874;1291;545834;-71
2023/11/23 17:54:11;;;;;;;15.60;8.50;;;;;;;;;;103793;1290;544600;-72
2023/11/23 17:57:48;;;;;;;24.40;16.20;;;;;;;;;;103762;1289;544803;-70
2023/11/23 18:01:25;;;;;;;10.10;5.40;;;;;;;;;;104066;1288;545597;-70
2023/11/23 18:05:03;;;;;;;11.60;8.60;;;;;;;;;;103799;1295;545938;-72
2023/11/23 18:08:40;;;;;;;7.40;2.70;;;;;;;;;;103771;1289;544939;-73
2023/11/23 18:12:18;;;;;;;7.50;3.50;;;;;;;;;;103932;1289;544888;-71
2023/11/23 18:15:56;;;;;;;7.00;3.30;;;;;;;;;;103924;1289;545967;-70
2023/11/23 18:19:35;;;;;;;7.20;3.20;;;;;;;;;;103622;1294;546064;-73
2023/11/23 18:23:10;;;;;;;11.20;6.20;;;;;;;;;;103742;1291;545115;-73
2023/11/23 18:26:47;;;;;;;13.30;7.00;;;;;;;;;;103640;1294;545004;-73
2023/11/23 18:30:24;;;;;;;8.30;3.70;;;;;;;;;;103707;1293;545052;-70
2023/11/23 18:34:04;;;;;;;15.00;7.40;;;;;;;;;;103714;1292;544903;-72
2023/11/23 18:37:40;;;;;;;10.10;5.50;;;;;;;;;;103819;1289;545051;-69
2023/11/23 18:41:13;;;;;;;8.30;4.10;;;;;;;;;;103840;1289;545280;-70
2023/11/23 18:44:55;;;;;;;9.70;4.60;;;;;;;;;;103736;1291;545330;-70
2023/11/23 18:48:33;;;;;;;11.70;5.70;;;;;;;;;;103733;1291;545002;-70
2023/11/23 18:52:14;;;;;;;8.80;3.80;;;;;;;;;;104697;1282;545759;-72
2023/11/23 18:55:47;;;;;;;7.80;4.10;;;;;;;;;;103836;1292;545789;-71
2023/11/23 18:59:24;;;;;;;8.50;4.50;;;;;;;;;;103772;1289;545142;-73
2023/11/23 19:03:22;;;;;;;8.80;4.30;;;;;;;;;;103751;1292;545378;-70
2023/11/23 19:06:40;;;;;;;8.30;3.60;;;;;;;;;;103844;1292;545983;-73
2023/11/23 19:10:17;;;;;;;12.00;6.50;;;;;;;;;;103683;1289;545418;-71
2023/11/23 19:14:00;;;;;;;9.10;4.10;;;;;;;;;;103669;1291;547939;-71
2023/11/23 19:17:52;;;;;;;8.60;3.60;;;;;;;;;;103701;1292;547799;-72
2023/11/23 19:21:12;;;;;;;8.00;3.40;;;;;;;;;;103728;1292;544755;-74
2023/11/23 19:24:50;;;;;;;7.80;4.00;;;;;;;;;;103558;1292;545591;-69
2023/11/23 19:28:24;;;;;;;8.50;3.40;;;;;;;;;;103766;1294;545013;-70
2023/11/23 19:32:06;;;;;;;9.40;3.80;;;;;;;;;;103770;1292;544745;-72
2023/11/23 19:35:40;;;;;;;8.80;3.10;;;;;;;;;;104270;1285;544916;-72
2023/11/23 19:39:18;;;;;;;10.80;6.00;;;;;;;;;;103931;1292;544960;-72
2023/11/23 19:42:59;;;;;;;12.20;5.80;;;;;;;;;;103911;1289;545264;-71
2023/11/23 19:46:31;;;;;;;22.10;11.60;;;;;;;;;;103740;1294;544965;-71
2023/11/23 19:50:09;;;;;;;9.30;5.20;;;;;;;;;;103520;1298;545023;-73
2023/11/23 19:53:47;;;;;;;12.00;6.90;;;;;;;;;;103741;1289;546416;-72
2023/11/23 19:57:20;;;;;;;24.30;12.40;;;;;;;;;;103748;1290;545303;-70
2023/11/23 20:01:02;;;;;;;18.30;10.00;;;;;;;;;;103712;1293;545042;-74
2023/11/23 20:04:44;;;;;;;21.80;12.30;;;;;;;;;;103637;1291;549189;-74
2023/11/23 20:08:16;;;;;;;16.70;8.40;;;;;;;;;;103874;1292;544598;-73
2023/11/23 20:11:54;;;;;;;14.20;7.10;;;;;;;;;;103810;1292;545138;-72
2023/11/23 20:15:31;;;;;;;16.00;9.10;;;;;;;;;;103945;1295;545383;-73
2023/11/23 20:19:09;;;;;;;10.40;5.60;;;;;;;;;;103896;1293;544932;-71
2023/11/23 20:23:07;;;;;;;13.50;7.60;;;;;;;;;;103674;1292;547839;-73
2023/11/23 20:26:30;;;;;;;11.20;6.90;;;;;;;;;;103722;1291;545349;-71
2023/11/23 20:30:03;;;;;;;8.80;4.60;;;;;;;;;;103791;1301;544793;-72
2023/11/23 20:34:02;;;;;;;9.00;4.30;;;;;;;;;;103821;1295;545025;-74
2023/11/23 20:37:16;;;;;;;6.90;3.60;;;;;;;;;;103818;1289;545626;-71
2023/11/23 20:40:56;;;;;;;7.50;3.00;;;;;;;;;;103949;1301;545212;-71
2023/11/23 20:44:31;;;;;;;17.80;8.80;;;;;;;;;;103781;1290;545522;-71